TimeMST,TemperatureF,Dew PointF,Humidity,Sea Level PressureIn,VisibilityMPH,Wind Direction,Wind SpeedMPH,Gust SpeedMPH,PrecipitationIn,Events,Conditions,WindDirDegrees,DateUTC
12:53 AM,37.0,28.0,70,29.79,10.0,West,10.4,-,N/A,,Clear,270,2012-11-08 07:53:00
1:53 AM,36.0,28.0,73,29.79,10.0,West,8.1,-,N/A,,Clear,260,2012-11-08 08:53:00
2:53 AM,39.0,27.0,62,29.77,10.0,SW,9.2,-,N/A,,Clear,220,2012-11-08 09:53:00
3:53 AM,39.0,27.0,62,29.78,10.0,WSW,9.2,-,N/A,,Clear,240,2012-11-08 10:53:00
5:53 AM,42.1,23.0,47,29.83,10.0,WSW,9.2,-,N/A,,Clear,250,2012-11-08 12:53:00
6:53 AM,41.0,23.0,49,29.84,10.0,SW,9.2,-,N/A,,Clear,220,2012-11-08 13:53:00
7:53 AM,51.1,23.0,33,29.87,10.0,West,11.5,-,N/A,,Clear,270,2012-11-08 14:53:00
8:53 AM,59.0,23.0,25,29.87,10.0,West,9.2,-,N/A,,Clear,260,2012-11-08 15:53:00
9:53 AM,64.9,24.1,21,29.85,10.0,West,9.2,-,N/A,,Clear,270,2012-11-08 16:53:00
10:53 AM,75.0,21.9,14,29.81,10.0,NE,15.0,-,N/A,,Clear,40,2012-11-08 17:53:00
11:53 AM,75.0,21.9,14,29.79,10.0,Calm,Calm,-,N/A,,Clear,0,2012-11-08 18:53:00
12:53 PM,75.0,21.9,14,29.77,10.0,East,6.9,-,N/A,,Clear,80,2012-11-08 19:53:00
1:53 PM,73.9,21.9,14,29.77,10.0,East,4.6,-,N/A,,Clear,90,2012-11-08 20:53:00
2:53 PM,73.9,21.9,14,29.75,10.0,SE,5.8,-,N/A,,Clear,130,2012-11-08 21:53:00
3:53 PM,72.0,24.1,17,29.74,10.0,East,10.4,-,N/A,,Clear,100,2012-11-08 22:53:00
4:53 PM,62.1,26.1,25,29.77,10.0,East,9.2,-,N/A,,Clear,100,2012-11-08 23:53:00
5:53 PM,57.0,27.0,32,29.78,10.0,ESE,9.2,-,N/A,,Clear,110,2012-11-09 00:53:00
6:53 PM,55.0,27.0,34,29.79,10.0,East,6.9,-,N/A,,Clear,100,2012-11-09 01:53:00
7:53 PM,50.0,30.0,46,29.76,10.0,ESE,8.1,-,N/A,,Clear,110,2012-11-09 02:53:00
8:53 PM,46.9,30.0,52,29.75,10.0,East,6.9,-,N/A,,Clear,100,2012-11-09 03:53:00
9:53 PM,44.1,28.9,55,29.74,10.0,ENE,4.6,-,N/A,,Clear,70,2012-11-09 04:53:00
10:53 PM,42.1,28.9,60,29.71,10.0,East,9.2,-,N/A,,Clear,90,2012-11-09 05:53:00
11:53 PM,42.1,30.9,65,29.70,10.0,ENE,8.1,-,N/A,,Clear,60,2012-11-09 06:53:00